sensor_id;sensor_type;location;lat;lon;timestamp;P1;durP1;ratioP1;P2;durP2;ratioP2
26502;SDS011;14177;51.520;6.764;2023-09-19T00:01:40;10.10;;;3.03;;
26502;SDS011;14177;51.520;6.764;2023-09-19T00:04:08;11.40;;;3.17;;
26502;SDS011;14177;51.520;6.764;2023-09-19T00:06:36;13.00;;;2.83;;
26502;SDS011;14177;51.520;6.764;2023-09-19T00:09:04;14.00;;;2.97;;
26502;SDS011;14177;51.520;6.764;2023-09-19T00:11:31;19.55;;;3.80;;
26502;SDS011;14177;51.520;6.764;2023-09-19T00:13:58;17.50;;;3.35;;
26502;SDS011;14177;51.520;6.764;2023-09-19T00:16:25;16.73;;;3.47;;
26502;SDS011;14177;51.520;6.764;2023-09-19T00:18:53;14.52;;;3.55;;
26502;SDS011;14177;51.520;6.764;2023-09-19T00:21:20;14.20;;;2.88;;
26502;SDS011;14177;51.520;6.764;2023-09-19T00:23:48;12.57;;;3.13;;
26502;SDS011;14177;51.520;6.764;2023-09-19T00:26:15;15.07;;;3.03;;
26502;SDS011;14177;51.520;6.764;2023-09-19T00:28:47;14.10;;;3.30;;
26502;SDS011;14177;51.520;6.764;2023-09-19T00:31:14;10.95;;;2.22;;
26502;SDS011;14177;51.520;6.764;2023-09-19T00:33:41;14.73;;;2.97;;
26502;SDS011;14177;51.520;6.764;2023-09-19T00:36:09;11.15;;;2.88;;
26502;SDS011;14177;51.520;6.764;2023-09-19T00:38:36;14.45;;;2.72;;
26502;SDS011;14177;51.520;6.764;2023-09-19T00:41:03;12.32;;;2.85;;
26502;SDS011;14177;51.520;6.764;2023-09-19T00:43:30;9.93;;;3.67;;
26502;SDS011;14177;51.520;6.764;2023-09-19T00:46:01;8.00;;;2.55;;
26502;SDS011;14177;51.520;6.764;2023-09-19T00:48:30;11.05;;;2.75;;
26502;SDS011;14177;51.520;6.764;2023-09-19T00:50:59;8.98;;;2.20;;
26502;SDS011;14177;51.520;6.764;2023-09-19T00:53:31;9.95;;;2.13;;
26502;SDS011;14177;51.520;6.764;2023-09-19T00:56:00;11.05;;;2.40;;
26502;SDS011;14177;51.520;6.764;2023-09-19T00:58:33;11.20;;;1.90;;
26502;SDS011;14177;51.520;6.764;2023-09-19T01:01:03;11.68;;;2.17;;
26502;SDS011;14177;51.520;6.764;2023-09-19T01:03:34;6.78;;;1.52;;
26502;SDS011;14177;51.520;6.764;2023-09-19T01:06:03;10.73;;;3.00;;
26502;SDS011;14177;51.520;6.764;2023-09-19T01:08:31;11.75;;;2.38;;
26502;SDS011;14177;51.520;6.764;2023-09-19T01:16:42;10.63;;;2.20;;
26502;SDS011;14177;51.520;6.764;2023-09-19T01:22:16;6.32;;;2.08;;
26502;SDS011;14177;51.520;6.764;2023-09-19T01:30:48;10.18;;;2.88;;
26502;SDS011;14177;51.520;6.764;2023-09-19T01:33:25;11.85;;;2.70;;
26502;SDS011;14177;51.520;6.764;2023-09-19T01:35:52;9.13;;;1.75;;
26502;SDS011;14177;51.520;6.764;2023-09-19T01:38:21;10.18;;;2.67;;
26502;SDS011;14177;51.520;6.764;2023-09-19T01:40:57;12.73;;;2.08;;
26502;SDS011;14177;51.520;6.764;2023-09-19T01:43:36;9.45;;;2.15;;
26502;SDS011;14177;51.520;6.764;2023-09-19T01:49:03;9.82;;;2.50;;
26502;SDS011;14177;51.520;6.764;2023-09-19T01:54:46;12.55;;;2.50;;
26502;SDS011;14177;51.520;6.764;2023-09-19T01:57:22;7.70;;;2.67;;
26502;SDS011;14177;51.520;6.764;2023-09-19T02:00:07;9.70;;;2.17;;
26502;SDS011;14177;51.520;6.764;2023-09-19T02:02:45;11.13;;;2.33;;
26502;SDS011;14177;51.520;6.764;2023-09-19T02:05:21;9.55;;;2.30;;
26502;SDS011;14177;51.520;6.764;2023-09-19T02:07:54;11.65;;;1.85;;
26502;SDS011;14177;51.520;6.764;2023-09-19T02:10:22;7.50;;;1.92;;
26502;SDS011;14177;51.520;6.764;2023-09-19T02:12:50;5.45;;;1.65;;
26502;SDS011;14177;51.520;6.764;2023-09-19T02:15:18;5.93;;;1.75;;
26502;SDS011;14177;51.520;6.764;2023-09-19T02:17:45;8.85;;;1.88;;
26502;SDS011;14177;51.520;6.764;2023-09-19T02:20:12;11.30;;;1.88;;
26502;SDS011;14177;51.520;6.764;2023-09-19T02:22:43;12.45;;;2.20;;
26502;SDS011;14177;51.520;6.764;2023-09-19T02:25:10;10.05;;;1.70;;
26502;SDS011;14177;51.520;6.764;2023-09-19T02:27:40;8.45;;;2.00;;
26502;SDS011;14177;51.520;6.764;2023-09-19T02:30:07;6.45;;;1.42;;
26502;SDS011;14177;51.520;6.764;2023-09-19T02:32:34;10.23;;;2.10;;
26502;SDS011;14177;51.520;6.764;2023-09-19T02:35:05;8.13;;;1.83;;
26502;SDS011;14177;51.520;6.764;2023-09-19T02:37:33;12.40;;;1.80;;
26502;SDS011;14177;51.520;6.764;2023-09-19T02:40:01;6.00;;;1.60;;
26502;SDS011;14177;51.520;6.764;2023-09-19T02:42:28;6.03;;;1.70;;
26502;SDS011;14177;51.520;6.764;2023-09-19T02:44:56;8.13;;;1.77;;
26502;SDS011;14177;51.520;6.764;2023-09-19T02:47:23;5.45;;;1.77;;
26502;SDS011;14177;51.520;6.764;2023-09-19T02:49:51;6.97;;;1.80;;
26502;SDS011;14177;51.520;6.764;2023-09-19T02:52:18;10.50;;;2.00;;
26502;SDS011;14177;51.520;6.764;2023-09-19T02:54:45;12.13;;;2.38;;
26502;SDS011;14177;51.520;6.764;2023-09-19T02:57:13;12.50;;;2.17;;
26502;SDS011;14177;51.520;6.764;2023-09-19T02:59:41;12.57;;;1.55;;
26502;SDS011;14177;51.520;6.764;2023-09-19T03:02:10;11.95;;;2.13;;
26502;SDS011;14177;51.520;6.764;2023-09-19T03:04:37;9.00;;;1.75;;
26502;SDS011;14177;51.520;6.764;2023-09-19T03:07:05;11.52;;;2.70;;
26502;SDS011;14177;51.520;6.764;2023-09-19T03:09:32;11.40;;;2.40;;
26502;SDS011;14177;51.520;6.764;2023-09-19T03:11:59;9.65;;;2.17;;
26502;SDS011;14177;51.520;6.764;2023-09-19T03:14:26;5.55;;;1.95;;
26502;SDS011;14177;51.520;6.764;2023-09-19T03:16:58;6.13;;;2.20;;
26502;SDS011;14177;51.520;6.764;2023-09-19T03:19:26;8.52;;;2.42;;
26502;SDS011;14177;51.520;6.764;2023-09-19T03:21:54;10.07;;;2.45;;
26502;SDS011;14177;51.520;6.764;2023-09-19T03:24:23;10.85;;;2.45;;
26502;SDS011;14177;51.520;6.764;2023-09-19T03:26:50;10.15;;;2.60;;
26502;SDS011;14177;51.520;6.764;2023-09-19T03:29:18;11.15;;;3.10;;
26502;SDS011;14177;51.520;6.764;2023-09-19T03:31:45;7.43;;;2.30;;
26502;SDS011;14177;51.520;6.764;2023-09-19T03:34:12;17.90;;;2.78;;
26502;SDS011;14177;51.520;6.764;2023-09-19T03:36:39;10.35;;;2.55;;
26502;SDS011;14177;51.520;6.764;2023-09-19T03:39:08;11.88;;;2.08;;
26502;SDS011;14177;51.520;6.764;2023-09-19T03:41:35;13.85;;;2.38;;
26502;SDS011;14177;51.520;6.764;2023-09-19T03:44:03;12.52;;;2.72;;
26502;SDS011;14177;51.520;6.764;2023-09-19T03:46:31;12.55;;;2.60;;
26502;SDS011;14177;51.520;6.764;2023-09-19T03:48:59;12.95;;;2.20;;
26502;SDS011;14177;51.520;6.764;2023-09-19T03:51:27;12.68;;;2.72;;
26502;SDS011;14177;51.520;6.764;2023-09-19T03:53:54;8.70;;;2.35;;
26502;SDS011;14177;51.520;6.764;2023-09-19T03:56:21;14.65;;;2.92;;
26502;SDS011;14177;51.520;6.764;2023-09-19T03:58:48;11.00;;;2.20;;
26502;SDS011;14177;51.520;6.764;2023-09-19T04:01:15;15.25;;;2.65;;
26502;SDS011;14177;51.520;6.764;2023-09-19T04:03:44;13.57;;;3.20;;
26502;SDS011;14177;51.520;6.764;2023-09-19T04:06:14;10.60;;;2.38;;
26502;SDS011;14177;51.520;6.764;2023-09-19T04:08:43;11.05;;;3.03;;
26502;SDS011;14177;51.520;6.764;2023-09-19T04:11:11;15.85;;;2.42;;
26502;SDS011;14177;51.520;6.764;2023-09-19T04:13:38;12.52;;;2.10;;
26502;SDS011;14177;51.520;6.764;2023-09-19T04:16:05;11.52;;;2.10;;
26502;SDS011;14177;51.520;6.764;2023-09-19T04:18:36;12.55;;;2.47;;
26502;SDS011;14177;51.520;6.764;2023-09-19T04:21:05;9.02;;;2.15;;
26502;SDS011;14177;51.520;6.764;2023-09-19T04:23:33;12.85;;;2.47;;
26502;SDS011;14177;51.520;6.764;2023-09-19T04:26:00;9.88;;;2.28;;
26502;SDS011;14177;51.520;6.764;2023-09-19T04:28:27;14.55;;;2.65;;
26502;SDS011;14177;51.520;6.764;2023-09-19T04:30:54;11.10;;;2.80;;
26502;SDS011;14177;51.520;6.764;2023-09-19T04:33:21;10.13;;;2.20;;
26502;SDS011;14177;51.520;6.764;2023-09-19T04:35:49;13.10;;;2.92;;
26502;SDS011;14177;51.520;6.764;2023-09-19T04:38:18;10.65;;;2.67;;
26502;SDS011;14177;51.520;6.764;2023-09-19T04:40:46;8.63;;;2.25;;
26502;SDS011;14177;51.520;6.764;2023-09-19T04:43:13;11.52;;;2.88;;
26502;SDS011;14177;51.520;6.764;2023-09-19T04:45:41;16.27;;;3.80;;
26502;SDS011;14177;51.520;6.764;2023-09-19T04:48:08;10.82;;;2.28;;
26502;SDS011;14177;51.520;6.764;2023-09-19T04:50:37;11.70;;;2.20;;
26502;SDS011;14177;51.520;6.764;2023-09-19T04:53:04;8.85;;;2.13;;
26502;SDS011;14177;51.520;6.764;2023-09-19T04:55:34;9.82;;;2.63;;
26502;SDS011;14177;51.520;6.764;2023-09-19T04:58:01;9.57;;;2.40;;
26502;SDS011;14177;51.520;6.764;2023-09-19T05:00:29;13.00;;;2.60;;
26502;SDS011;14177;51.520;6.764;2023-09-19T05:02:57;14.75;;;3.00;;
26502;SDS011;14177;51.520;6.764;2023-09-19T05:05:24;11.63;;;2.28;;
26502;SDS011;14177;51.520;6.764;2023-09-19T05:07:52;13.93;;;2.53;;
26502;SDS011;14177;51.520;6.764;2023-09-19T05:10:20;10.35;;;2.80;;
26502;SDS011;14177;51.520;6.764;2023-09-19T05:12:48;8.95;;;2.45;;
26502;SDS011;14177;51.520;6.764;2023-09-19T05:15:18;14.45;;;3.30;;
26502;SDS011;14177;51.520;6.764;2023-09-19T05:17:49;17.98;;;4.22;;
26502;SDS011;14177;51.520;6.764;2023-09-19T05:20:22;9.57;;;2.92;;
26502;SDS011;14177;51.520;6.764;2023-09-19T05:22:57;13.75;;;3.45;;
26502;SDS011;14177;51.520;6.764;2023-09-19T05:25:30;15.00;;;3.60;;
26502;SDS011;14177;51.520;6.764;2023-09-19T05:27:59;15.32;;;3.90;;
26502;SDS011;14177;51.520;6.764;2023-09-19T05:30:30;22.83;;;3.88;;
26502;SDS011;14177;51.520;6.764;2023-09-19T05:32:58;13.73;;;3.58;;
26502;SDS011;14177;51.520;6.764;2023-09-19T05:35:25;12.80;;;3.45;;
26502;SDS011;14177;51.520;6.764;2023-09-19T05:37:55;19.00;;;3.78;;
26502;SDS011;14177;51.520;6.764;2023-09-19T05:40:22;10.38;;;2.47;;
26502;SDS011;14177;51.520;6.764;2023-09-19T05:42:50;14.55;;;3.25;;
26502;SDS011;14177;51.520;6.764;2023-09-19T05:45:17;11.32;;;2.83;;
26502;SDS011;14177;51.520;6.764;2023-09-19T05:47:51;13.63;;;3.23;;
26502;SDS011;14177;51.520;6.764;2023-09-19T05:50:22;13.82;;;3.42;;
26502;SDS011;14177;51.520;6.764;2023-09-19T05:52:51;12.13;;;3.42;;
26502;SDS011;14177;51.520;6.764;2023-09-19T05:55:22;8.77;;;2.20;;
26502;SDS011;14177;51.520;6.764;2023-09-19T05:57:51;7.18;;;2.20;;
26502;SDS011;14177;51.520;6.764;2023-09-19T06:00:22;16.75;;;2.72;;
26502;SDS011;14177;51.520;6.764;2023-09-19T06:02:54;10.23;;;2.65;;
26502;SDS011;14177;51.520;6.764;2023-09-19T06:05:24;10.23;;;2.35;;
26502;SDS011;14177;51.520;6.764;2023-09-19T06:07:53;16.50;;;3.30;;
26502;SDS011;14177;51.520;6.764;2023-09-19T06:10:21;12.27;;;3.13;;
26502;SDS011;14177;51.520;6.764;2023-09-19T06:12:49;12.05;;;2.47;;
26502;SDS011;14177;51.520;6.764;2023-09-19T06:15:16;12.85;;;2.33;;
26502;SDS011;14177;51.520;6.764;2023-09-19T06:20:17;17.98;;;2.72;;
26502;SDS011;14177;51.520;6.764;2023-09-19T06:22:44;15.45;;;3.40;;
26502;SDS011;14177;51.520;6.764;2023-09-19T06:25:13;17.60;;;3.40;;
26502;SDS011;14177;51.520;6.764;2023-09-19T06:27:47;12.00;;;2.50;;
26502;SDS011;14177;51.520;6.764;2023-09-19T06:30:18;11.13;;;3.00;;
26502;SDS011;14177;51.520;6.764;2023-09-19T06:32:46;10.75;;;2.58;;
26502;SDS011;14177;51.520;6.764;2023-09-19T06:35:13;7.68;;;2.28;;
26502;SDS011;14177;51.520;6.764;2023-09-19T06:37:42;15.85;;;3.42;;
26502;SDS011;14177;51.520;6.764;2023-09-19T06:40:13;14.20;;;3.97;;
26502;SDS011;14177;51.520;6.764;2023-09-19T06:42:50;13.23;;;3.28;;
26502;SDS011;14177;51.520;6.764;2023-09-19T06:45:19;14.07;;;2.88;;
26502;SDS011;14177;51.520;6.764;2023-09-19T06:47:49;11.20;;;2.90;;
26502;SDS011;14177;51.520;6.764;2023-09-19T06:50:18;14.63;;;2.83;;
26502;SDS011;14177;51.520;6.764;2023-09-19T06:52:50;15.88;;;2.53;;
26502;SDS011;14177;51.520;6.764;2023-09-19T06:55:21;18.73;;;2.70;;
26502;SDS011;14177;51.520;6.764;2023-09-19T06:57:51;10.95;;;1.92;;
26502;SDS011;14177;51.520;6.764;2023-09-19T07:00:21;9.55;;;1.80;;
26502;SDS011;14177;51.520;6.764;2023-09-19T07:03:04;16.42;;;2.40;;
26502;SDS011;14177;51.520;6.764;2023-09-19T07:05:38;17.30;;;2.40;;
26502;SDS011;14177;51.520;6.764;2023-09-19T07:08:07;15.50;;;2.33;;
26502;SDS011;14177;51.520;6.764;2023-09-19T07:10:37;13.25;;;2.60;;
26502;SDS011;14177;51.520;6.764;2023-09-19T07:13:07;19.88;;;2.95;;
26502;SDS011;14177;51.520;6.764;2023-09-19T07:15:38;13.70;;;3.55;;
26502;SDS011;14177;51.520;6.764;2023-09-19T07:18:08;16.33;;;3.30;;
26502;SDS011;14177;51.520;6.764;2023-09-19T07:20:37;10.30;;;2.58;;
26502;SDS011;14177;51.520;6.764;2023-09-19T07:23:05;16.30;;;3.42;;
26502;SDS011;14177;51.520;6.764;2023-09-19T07:25:32;10.35;;;2.55;;
26502;SDS011;14177;51.520;6.764;2023-09-19T07:28:01;18.45;;;3.47;;
26502;SDS011;14177;51.520;6.764;2023-09-19T07:30:29;13.82;;;3.40;;
26502;SDS011;14177;51.520;6.764;2023-09-19T07:32:57;14.93;;;2.75;;
26502;SDS011;14177;51.520;6.764;2023-09-19T07:35:24;9.00;;;2.50;;
26502;SDS011;14177;51.520;6.764;2023-09-19T07:37:52;15.55;;;2.80;;
26502;SDS011;14177;51.520;6.764;2023-09-19T07:40:19;20.40;;;3.70;;
26502;SDS011;14177;51.520;6.764;2023-09-19T07:42:50;10.90;;;2.88;;
26502;SDS011;14177;51.520;6.764;2023-09-19T07:45:17;15.52;;;2.80;;
26502;SDS011;14177;51.520;6.764;2023-09-19T07:47:49;11.30;;;2.47;;
26502;SDS011;14177;51.520;6.764;2023-09-19T07:50:17;11.02;;;1.90;;
26502;SDS011;14177;51.520;6.764;2023-09-19T07:52:46;14.30;;;2.60;;
26502;SDS011;14177;51.520;6.764;2023-09-19T07:55:14;15.50;;;2.50;;
26502;SDS011;14177;51.520;6.764;2023-09-19T07:57:46;9.25;;;2.20;;
26502;SDS011;14177;51.520;6.764;2023-09-19T08:00:13;15.02;;;3.03;;
26502;SDS011;14177;51.520;6.764;2023-09-19T08:02:41;12.73;;;2.92;;
26502;SDS011;14177;51.520;6.764;2023-09-19T08:05:10;26.95;;;3.17;;
26502;SDS011;14177;51.520;6.764;2023-09-19T08:07:42;15.75;;;3.35;;
26502;SDS011;14177;51.520;6.764;2023-09-19T08:10:15;11.48;;;2.90;;
26502;SDS011;14177;51.520;6.764;2023-09-19T08:12:42;14.20;;;2.63;;
26502;SDS011;14177;51.520;6.764;2023-09-19T08:15:15;12.65;;;2.97;;
26502;SDS011;14177;51.520;6.764;2023-09-19T08:17:47;11.30;;;2.30;;
26502;SDS011;14177;51.520;6.764;2023-09-19T08:20:15;18.50;;;3.78;;
26502;SDS011;14177;51.520;6.764;2023-09-19T08:22:46;11.10;;;2.40;;
26502;SDS011;14177;51.520;6.764;2023-09-19T08:25:15;17.10;;;2.70;;
26502;SDS011;14177;51.520;6.764;2023-09-19T08:27:47;18.60;;;2.97;;
26502;SDS011;14177;51.520;6.764;2023-09-19T08:30:16;16.33;;;2.40;;
26502;SDS011;14177;51.520;6.764;2023-09-19T08:32:50;19.75;;;2.63;;
26502;SDS011;14177;51.520;6.764;2023-09-19T08:35:17;11.00;;;2.15;;
26502;SDS011;14177;51.520;6.764;2023-09-19T08:37:46;8.32;;;2.15;;
26502;SDS011;14177;51.520;6.764;2023-09-19T08:40:13;14.60;;;3.05;;
26502;SDS011;14177;51.520;6.764;2023-09-19T08:42:53;11.05;;;2.45;;
26502;SDS011;14177;51.520;6.764;2023-09-19T08:45:22;13.50;;;2.63;;
26502;SDS011;14177;51.520;6.764;2023-09-19T08:50:43;19.88;;;3.20;;
26502;SDS011;14177;51.520;6.764;2023-09-19T08:53:42;11.77;;;2.97;;
26502;SDS011;14177;51.520;6.764;2023-09-19T08:56:33;12.55;;;2.67;;
26502;SDS011;14177;51.520;6.764;2023-09-19T08:59:06;8.95;;;1.60;;
26502;SDS011;14177;51.520;6.764;2023-09-19T09:01:37;10.50;;;3.03;;
26502;SDS011;14177;51.520;6.764;2023-09-19T09:04:08;12.38;;;2.55;;
26502;SDS011;14177;51.520;6.764;2023-09-19T09:06:39;9.85;;;2.15;;
26502;SDS011;14177;51.520;6.764;2023-09-19T09:09:09;12.68;;;2.15;;
26502;SDS011;14177;51.520;6.764;2023-09-19T09:11:37;6.05;;;1.50;;
26502;SDS011;14177;51.520;6.764;2023-09-19T09:14:06;10.38;;;2.72;;
26502;SDS011;14177;51.520;6.764;2023-09-19T09:16:34;13.68;;;2.35;;
26502;SDS011;14177;51.520;6.764;2023-09-19T09:19:02;10.95;;;2.38;;
26502;SDS011;14177;51.520;6.764;2023-09-19T09:21:29;13.05;;;3.30;;
26502;SDS011;14177;51.520;6.764;2023-09-19T09:23:56;16.67;;;2.80;;
26502;SDS011;14177;51.520;6.764;2023-09-19T09:29:05;9.13;;;1.85;;
26502;SDS011;14177;51.520;6.764;2023-09-19T09:31:32;17.25;;;2.25;;
26502;SDS011;14177;51.520;6.764;2023-09-19T09:33:59;12.98;;;1.98;;
26502;SDS011;14177;51.520;6.764;2023-09-19T09:36:40;7.13;;;2.22;;
26502;SDS011;14177;51.520;6.764;2023-09-19T09:39:08;11.00;;;2.65;;
26502;SDS011;14177;51.520;6.764;2023-09-19T09:41:45;8.55;;;2.10;;
26502;SDS011;14177;51.520;6.764;2023-09-19T09:44:13;9.40;;;1.77;;
26502;SDS011;14177;51.520;6.764;2023-09-19T09:46:42;8.30;;;1.83;;
26502;SDS011;14177;51.520;6.764;2023-09-19T09:49:24;16.40;;;3.42;;
26502;SDS011;14177;51.520;6.764;2023-09-19T09:52:01;13.98;;;3.28;;
26502;SDS011;14177;51.520;6.764;2023-09-19T09:57:46;11.18;;;2.08;;
26502;SDS011;14177;51.520;6.764;2023-09-19T10:00:53;15.90;;;2.78;;
26502;SDS011;14177;51.520;6.764;2023-09-19T10:03:31;9.05;;;2.15;;
26502;SDS011;14177;51.520;6.764;2023-09-19T10:06:07;11.30;;;2.30;;
26502;SDS011;14177;51.520;6.764;2023-09-19T10:08:58;15.23;;;2.88;;
26502;SDS011;14177;51.520;6.764;2023-09-19T10:11:43;19.77;;;3.60;;
26502;SDS011;14177;51.520;6.764;2023-09-19T10:14:13;13.02;;;2.25;;
26502;SDS011;14177;51.520;6.764;2023-09-19T10:16:46;10.25;;;2.10;;
26502;SDS011;14177;51.520;6.764;2023-09-19T10:19:15;10.18;;;1.92;;
26502;SDS011;14177;51.520;6.764;2023-09-19T10:22:13;14.48;;;2.03;;
26502;SDS011;14177;51.520;6.764;2023-09-19T10:24:42;13.32;;;3.25;;
26502;SDS011;14177;51.520;6.764;2023-09-19T10:27:27;12.00;;;2.70;;
26502;SDS011;14177;51.520;6.764;2023-09-19T10:30:05;5.70;;;1.88;;
26502;SDS011;14177;51.520;6.764;2023-09-19T10:32:34;11.77;;;2.45;;
26502;SDS011;14177;51.520;6.764;2023-09-19T10:35:06;10.18;;;2.15;;
26502;SDS011;14177;51.520;6.764;2023-09-19T10:37:34;10.05;;;2.35;;
26502;SDS011;14177;51.520;6.764;2023-09-19T10:40:04;11.05;;;2.38;;
26502;SDS011;14177;51.520;6.764;2023-09-19T10:42:38;5.72;;;1.48;;
26502;SDS011;14177;51.520;6.764;2023-09-19T10:45:09;9.10;;;2.53;;
26502;SDS011;14177;51.520;6.764;2023-09-19T10:47:41;6.00;;;1.63;;
26502;SDS011;14177;51.520;6.764;2023-09-19T10:50:09;10.20;;;1.73;;
26502;SDS011;14177;51.520;6.764;2023-09-19T10:52:48;11.50;;;1.70;;
26502;SDS011;14177;51.520;6.764;2023-09-19T10:55:25;8.80;;;1.65;;
26502;SDS011;14177;51.520;6.764;2023-09-19T10:57:55;9.02;;;1.63;;
26502;SDS011;14177;51.520;6.764;2023-09-19T11:00:55;7.38;;;2.10;;
26502;SDS011;14177;51.520;6.764;2023-09-19T11:03:43;11.98;;;2.20;;
26502;SDS011;14177;51.520;6.764;2023-09-19T11:14:16;9.00;;;2.50;;
26502;SDS011;14177;51.520;6.764;2023-09-19T11:20:14;14.30;;;2.90;;
26502;SDS011;14177;51.520;6.764;2023-09-19T11:30:49;8.77;;;1.77;;
26502;SDS011;14177;51.520;6.764;2023-09-19T11:41:56;5.72;;;1.73;;
26502;SDS011;14177;51.520;6.764;2023-09-19T11:46:52;22.60;;;5.70;;
26502;SDS011;14177;51.520;6.764;2023-09-19T11:49:26;9.43;;;2.28;;
26502;SDS011;14177;51.520;6.764;2023-09-19T11:51:58;6.25;;;2.20;;
26502;SDS011;14177;51.520;6.764;2023-09-19T11:54:27;7.60;;;1.60;;
26502;SDS011;14177;51.520;6.764;2023-09-19T11:56:58;11.38;;;2.00;;
26502;SDS011;14177;51.520;6.764;2023-09-19T11:59:27;8.63;;;1.98;;
26502;SDS011;14177;51.520;6.764;2023-09-19T12:02:01;8.13;;;2.22;;
26502;SDS011;14177;51.520;6.764;2023-09-19T12:04:41;15.15;;;3.55;;
26502;SDS011;14177;51.520;6.764;2023-09-19T12:07:12;10.65;;;2.13;;
26502;SDS011;14177;51.520;6.764;2023-09-19T12:09:46;10.88;;;2.30;;
26502;SDS011;14177;51.520;6.764;2023-09-19T12:12:20;9.23;;;2.40;;
26502;SDS011;14177;51.520;6.764;2023-09-19T12:14:56;9.15;;;2.72;;
26502;SDS011;14177;51.520;6.764;2023-09-19T12:17:41;13.00;;;3.08;;
26502;SDS011;14177;51.520;6.764;2023-09-19T12:20:10;13.90;;;3.40;;
26502;SDS011;14177;51.520;6.764;2023-09-19T12:22:42;10.90;;;3.15;;
26502;SDS011;14177;51.520;6.764;2023-09-19T12:25:12;9.80;;;2.28;;
26502;SDS011;14177;51.520;6.764;2023-09-19T12:30:13;8.32;;;2.25;;
26502;SDS011;14177;51.520;6.764;2023-09-19T12:32:47;11.82;;;1.80;;
26502;SDS011;14177;51.520;6.764;2023-09-19T12:38:01;8.60;;;2.35;;
26502;SDS011;14177;51.520;6.764;2023-09-19T12:40:30;8.40;;;2.08;;
26502;SDS011;14177;51.520;6.764;2023-09-19T12:43:00;9.93;;;2.42;;
26502;SDS011;14177;51.520;6.764;2023-09-19T12:45:32;4.68;;;2.05;;
26502;SDS011;14177;51.520;6.764;2023-09-19T12:48:19;12.90;;;3.03;;
26502;SDS011;14177;51.520;6.764;2023-09-19T12:50:59;3.85;;;1.50;;
26502;SDS011;14177;51.520;6.764;2023-09-19T12:53:39;7.43;;;2.20;;
26502;SDS011;14177;51.520;6.764;2023-09-19T12:56:13;8.55;;;2.00;;
26502;SDS011;14177;51.520;6.764;2023-09-19T13:01:22;7.28;;;1.48;;
26502;SDS011;14177;51.520;6.764;2023-09-19T13:04:13;5.57;;;1.45;;
26502;SDS011;14177;51.520;6.764;2023-09-19T13:06:46;7.13;;;1.40;;
26502;SDS011;14177;51.520;6.764;2023-09-19T13:09:16;7.80;;;2.55;;
26502;SDS011;14177;51.520;6.764;2023-09-19T13:11:48;11.57;;;2.55;;
26502;SDS011;14177;51.520;6.764;2023-09-19T13:14:23;7.63;;;1.77;;
26502;SDS011;14177;51.520;6.764;2023-09-19T13:17:06;5.78;;;1.30;;
26502;SDS011;14177;51.520;6.764;2023-09-19T13:19:46;2.45;;;1.20;;
26502;SDS011;14177;51.520;6.764;2023-09-19T13:25:17;8.98;;;1.25;;
26502;SDS011;14177;51.520;6.764;2023-09-19T13:27:46;8.15;;;1.20;;
26502;SDS011;14177;51.520;6.764;2023-09-19T13:30:18;5.55;;;0.93;;
26502;SDS011;14177;51.520;6.764;2023-09-19T13:32:46;4.30;;;1.23;;
26502;SDS011;14177;51.520;6.764;2023-09-19T13:35:14;6.65;;;1.92;;
26502;SDS011;14177;51.520;6.764;2023-09-19T13:37:42;9.00;;;1.75;;
26502;SDS011;14177;51.520;6.764;2023-09-19T13:40:11;8.98;;;1.90;;
26502;SDS011;14177;51.520;6.764;2023-09-19T13:42:40;9.63;;;2.38;;
26502;SDS011;14177;51.520;6.764;2023-09-19T13:45:08;7.90;;;1.40;;
26502;SDS011;14177;51.520;6.764;2023-09-19T13:47:38;5.60;;;1.10;;
26502;SDS011;14177;51.520;6.764;2023-09-19T13:50:07;5.75;;;1.08;;
26502;SDS011;14177;51.520;6.764;2023-09-19T13:52:35;5.22;;;1.10;;
26502;SDS011;14177;51.520;6.764;2023-09-19T13:55:02;7.18;;;1.50;;
26502;SDS011;14177;51.520;6.764;2023-09-19T13:57:31;7.07;;;1.83;;
26502;SDS011;14177;51.520;6.764;2023-09-19T13:59:59;2.97;;;1.10;;
26502;SDS011;14177;51.520;6.764;2023-09-19T14:02:37;4.80;;;1.10;;
26502;SDS011;14177;51.520;6.764;2023-09-19T14:05:05;5.55;;;1.35;;
26502;SDS011;14177;51.520;6.764;2023-09-19T14:07:33;3.10;;;0.93;;
26502;SDS011;14177;51.520;6.764;2023-09-19T14:10:00;5.68;;;1.35;;
26502;SDS011;14177;51.520;6.764;2023-09-19T14:12:27;6.50;;;1.10;;
26502;SDS011;14177;51.520;6.764;2023-09-19T14:14:54;4.53;;;1.10;;
26502;SDS011;14177;51.520;6.764;2023-09-19T14:17:22;5.40;;;0.80;;
26502;SDS011;14177;51.520;6.764;2023-09-19T14:19:50;4.88;;;0.88;;
26502;SDS011;14177;51.520;6.764;2023-09-19T14:22:17;6.10;;;1.42;;
26502;SDS011;14177;51.520;6.764;2023-09-19T14:24:44;8.25;;;1.70;;
26502;SDS011;14177;51.520;6.764;2023-09-19T14:27:11;4.13;;;1.10;;
26502;SDS011;14177;51.520;6.764;2023-09-19T14:29:38;6.28;;;1.27;;
26502;SDS011;14177;51.520;6.764;2023-09-19T14:32:05;3.30;;;0.95;;
26502;SDS011;14177;51.520;6.764;2023-09-19T14:34:32;6.43;;;1.00;;
26502;SDS011;14177;51.520;6.764;2023-09-19T14:36:59;5.05;;;0.85;;
26502;SDS011;14177;51.520;6.764;2023-09-19T14:39:26;4.13;;;0.77;;
26502;SDS011;14177;51.520;6.764;2023-09-19T14:41:54;3.47;;;1.00;;
26502;SDS011;14177;51.520;6.764;2023-09-19T14:44:21;7.55;;;1.48;;
26502;SDS011;14177;51.520;6.764;2023-09-19T14:46:48;7.45;;;2.40;;
26502;SDS011;14177;51.520;6.764;2023-09-19T14:49:16;4.32;;;0.82;;
26502;SDS011;14177;51.520;6.764;2023-09-19T14:51:43;5.32;;;1.25;;
26502;SDS011;14177;51.520;6.764;2023-09-19T14:54:11;4.95;;;0.90;;
26502;SDS011;14177;51.520;6.764;2023-09-19T14:56:38;5.15;;;1.92;;
26502;SDS011;14177;51.520;6.764;2023-09-19T14:59:08;7.03;;;1.30;;
26502;SDS011;14177;51.520;6.764;2023-09-19T15:01:37;5.75;;;1.25;;
26502;SDS011;14177;51.520;6.764;2023-09-19T15:04:05;7.28;;;1.50;;
26502;SDS011;14177;51.520;6.764;2023-09-19T15:06:32;8.80;;;0.85;;
26502;SDS011;14177;51.520;6.764;2023-09-19T15:09:00;3.65;;;1.13;;
26502;SDS011;14177;51.520;6.764;2023-09-19T15:11:27;5.13;;;0.80;;
26502;SDS011;14177;51.520;6.764;2023-09-19T15:13:54;3.42;;;0.98;;
26502;SDS011;14177;51.520;6.764;2023-09-19T15:16:21;6.40;;;1.20;;
26502;SDS011;14177;51.520;6.764;2023-09-19T15:18:48;6.93;;;1.13;;
26502;SDS011;14177;51.520;6.764;2023-09-19T15:21:16;8.30;;;1.45;;
26502;SDS011;14177;51.520;6.764;2023-09-19T15:23:43;5.75;;;1.58;;
26502;SDS011;14177;51.520;6.764;2023-09-19T15:26:12;3.85;;;1.33;;
26502;SDS011;14177;51.520;6.764;2023-09-19T15:28:43;6.75;;;1.17;;
26502;SDS011;14177;51.520;6.764;2023-09-19T15:31:11;8.10;;;1.25;;
26502;SDS011;14177;51.520;6.764;2023-09-19T15:33:39;3.50;;;1.08;;
26502;SDS011;14177;51.520;6.764;2023-09-19T15:36:07;2.78;;;0.60;;
26502;SDS011;14177;51.520;6.764;2023-09-19T15:38:56;2.50;;;0.90;;
26502;SDS011;14177;51.520;6.764;2023-09-19T15:41:33;3.17;;;0.70;;
26502;SDS011;14177;51.520;6.764;2023-09-19T15:44:13;1.50;;;0.50;;
26502;SDS011;14177;51.520;6.764;2023-09-19T15:46:45;3.60;;;0.98;;
26502;SDS011;14177;51.520;6.764;2023-09-19T15:49:13;4.13;;;1.35;;
26502;SDS011;14177;51.520;6.764;2023-09-19T15:51:41;9.88;;;1.30;;
26502;SDS011;14177;51.520;6.764;2023-09-19T15:54:13;6.97;;;1.42;;
26502;SDS011;14177;51.520;6.764;2023-09-19T15:59:09;3.83;;;1.20;;
26502;SDS011;14177;51.520;6.764;2023-09-19T16:01:41;7.18;;;1.83;;
26502;SDS011;14177;51.520;6.764;2023-09-19T16:04:10;3.67;;;0.98;;
26502;SDS011;14177;51.520;6.764;2023-09-19T16:06:39;2.22;;;0.98;;
26502;SDS011;14177;51.520;6.764;2023-09-19T16:09:08;4.50;;;0.70;;
26502;SDS011;14177;51.520;6.764;2023-09-19T16:11:36;6.35;;;0.90;;
26502;SDS011;14177;51.520;6.764;2023-09-19T16:14:04;3.97;;;1.00;;
26502;SDS011;14177;51.520;6.764;2023-09-19T16:16:37;4.50;;;1.08;;